createdAt,value
2019-05-13T00:01:10.514Z,10.80
2019-05-13T00:11:15.758Z,10.80
2019-05-13T00:21:23.133Z,10.80
2019-05-13T00:31:28.063Z,10.80
2019-05-13T00:41:33.875Z,10.70
2019-05-13T00:51:39.282Z,10.70
2019-05-13T01:01:44.669Z,10.50
2019-05-13T01:11:49.939Z,10.50
2019-05-13T01:21:55.428Z,10.50
2019-05-13T01:32:01.158Z,10.50
2019-05-13T01:42:06.460Z,10.40
2019-05-13T01:52:13.685Z,10.30
2019-05-13T02:02:18.947Z,10.30
2019-05-13T02:12:24.341Z,10.20
2019-05-13T02:22:29.980Z,10.00
2019-05-13T02:32:35.353Z,10.00
2019-05-13T02:42:43.608Z,9.90
2019-05-13T02:52:48.951Z,9.90
2019-05-13T03:02:54.861Z,9.80
2019-05-13T03:13:03.332Z,9.60
2019-05-13T03:23:07.423Z,9.40
2019-05-13T03:33:18.591Z,9.30
2019-05-13T03:43:22.980Z,9.30
2019-05-13T03:53:28.836Z,9.30
2019-05-13T04:03:34.231Z,9.30
2019-05-13T04:13:42.535Z,9.10
2019-05-13T04:23:46.615Z,9.10
2019-05-13T04:33:53.262Z,9.20
2019-05-13T04:44:02.325Z,9.30
2019-05-13T04:54:06.102Z,9.40
2019-05-13T05:04:30.520Z,9.50
2019-05-13T05:14:56.944Z,9.60
2019-05-13T05:25:25.140Z,9.80
2019-05-13T05:36:11.727Z,10.00
2019-05-13T05:46:17.687Z,10.10
2019-05-13T05:56:24.053Z,10.30
2019-05-13T06:06:29.472Z,10.50
2019-05-13T06:16:35.683Z,10.70
2019-05-13T06:26:41.966Z,10.80
2019-05-13T06:36:47.573Z,10.90
2019-05-13T06:46:52.851Z,11.00
2019-05-13T06:56:58.141Z,11.20
2019-05-13T07:07:12.822Z,11.30
2019-05-13T07:17:12.396Z,11.60
2019-05-13T07:27:18.062Z,11.80
2019-05-13T07:37:23.489Z,11.90
2019-05-13T07:47:31.221Z,12.10
2019-05-13T07:57:35.744Z,12.30
2019-05-13T08:07:42.188Z,12.50
2019-05-13T08:17:48.195Z,12.70
2019-05-13T08:27:53.751Z,13.00
2019-05-13T08:38:01.376Z,13.30
2019-05-13T08:48:06.389Z,13.40
2019-05-13T08:58:12.460Z,13.50
2019-05-13T09:08:18.711Z,13.60
2019-05-13T09:18:24.140Z,13.70
2019-05-13T09:28:29.496Z,13.90
2019-05-13T09:38:35.265Z,14.00
2019-05-13T09:48:42.526Z,14.20
2019-05-13T09:58:47.644Z,14.50
2019-05-13T10:08:53.010Z,14.80
2019-05-13T10:18:58.271Z,15.10
2019-05-13T10:29:03.797Z,15.60
2019-05-13T10:39:11.652Z,16.70
2019-05-13T10:49:16.301Z,18.30
2019-05-13T10:59:22.988Z,19.80
2019-05-13T11:09:28.632Z,20.40
2019-05-13T11:19:36.967Z,21.30
2019-05-13T11:29:41.643Z,22.40
2019-05-13T11:39:47.068Z,23.40
2019-05-13T11:49:52.643Z,23.80
2019-05-13T11:59:58.635Z,23.30
2019-05-13T12:10:05.675Z,23.10
2019-05-13T12:20:12.205Z,23.30
2019-05-13T12:30:17.656Z,23.50
2019-05-13T12:40:23.220Z,24.30
2019-05-13T12:50:32.824Z,24.00
2019-05-13T13:00:37.967Z,24.80
2019-05-13T13:10:43.447Z,25.50
2019-05-13T13:21:08.530Z,25.40
2019-05-13T13:31:14.396Z,25.80
2019-05-13T13:41:22.616Z,24.20
2019-05-13T13:51:27.385Z,23.40
2019-05-13T14:01:33.595Z,22.30
2019-05-13T14:11:41.785Z,22.60
2019-05-13T14:21:46.499Z,22.60
2019-05-13T14:31:52.129Z,22.50
2019-05-13T14:41:57.971Z,22.30
2019-05-13T14:52:03.313Z,22.40
2019-05-13T15:02:08.576Z,22.40
2019-05-13T15:12:14.068Z,22.50
2019-05-13T15:22:22.470Z,22.30
2019-05-13T15:32:26.772Z,25.00
2019-05-13T15:42:32.283Z,24.20
2019-05-13T15:52:38.164Z,25.20
2019-05-13T16:02:43.776Z,23.30
2019-05-13T16:12:49.077Z,22.30
2019-05-13T16:22:54.494Z,21.80
2019-05-13T16:33:02.906Z,21.00
2019-05-13T16:43:08.148Z,20.40
2019-05-13T16:53:13.431Z,20.20
2019-05-13T17:03:21.066Z,20.10
2019-05-13T17:13:26.527Z,20.10
2019-05-13T17:23:31.802Z,20.00
2019-05-13T17:33:37.067Z,19.70
2019-05-13T17:43:42.644Z,19.50
2019-05-13T17:53:47.998Z,19.40
2019-05-13T18:03:53.285Z,19.20
2019-05-13T18:13:58.562Z,18.90
2019-05-13T18:24:03.896Z,18.60
2019-05-13T18:34:09.228Z,18.40
2019-05-13T18:44:14.742Z,18.30
2019-05-13T18:54:19.991Z,18.00
2019-05-13T19:04:25.248Z,17.70
2019-05-13T19:14:31.763Z,17.40
2019-05-13T19:24:37.291Z,17.10
2019-05-13T19:34:42.647Z,16.20
2019-05-13T19:44:47.998Z,15.60
2019-05-13T19:54:53.488Z,15.20
2019-05-13T20:05:01.066Z,14.90
2019-05-13T20:15:06.716Z,14.50
2019-05-13T20:25:13.139Z,14.40
2019-05-13T20:35:18.644Z,13.90
2019-05-13T20:45:24.183Z,13.50
2019-05-13T20:55:31.997Z,13.10
2019-05-13T21:05:36.956Z,12.70
2019-05-13T21:15:42.667Z,12.40
2019-05-13T21:25:48.016Z,12.10
2019-05-13T21:35:53.288Z,11.90
2019-05-13T21:45:58.875Z,11.70
2019-05-13T21:56:04.211Z,11.60
2019-05-13T22:06:11.053Z,11.40
2019-05-13T22:16:16.427Z,11.10
2019-05-13T22:26:22.307Z,11.00
2019-05-13T22:36:27.547Z,11.00
2019-05-13T22:46:33.348Z,10.80
2019-05-13T22:56:41.052Z,10.70
2019-05-13T23:06:45.552Z,10.60
2019-05-13T23:16:50.887Z,10.70
2019-05-13T23:26:56.148Z,10.60
2019-05-13T23:37:01.728Z,10.70
2019-05-13T23:47:07.400Z,10.60
2019-05-13T23:57:12.924Z,10.80
